CMA CGM Homere — MQBL6 — position and weather

sailwx.info

Track history (hours):
 
Tides and Currents Weather Stations Pressure Air Temp Water Temp Dewpoint Dewpoint Depression Visibility Wind Speed Wind Dir Waves Ship Positions

CMA CGM Homere

Last reported at 2016-Apr-25 23:33 UTC. Time now 2016-Apr-30 07:12 UTC.
Position N 10°51' W 061°35'.

Length 170 m; draft 5.9 m.

Type: Ship (hazmat cat A). MMSI: 235052314.

Date/timePositionNaut miles runAvg speedWind from/ knotsBaromVisibWave heightAir tempDewpointWater temp
2016-Apr-25 23:33N 10°51' W 061°35'1414.5
2016-Apr-25 22:33N 10°42' W 061°47'1111.2
2016-Apr-25 21:34N 10°37' W 061°37'6 5.7
2016-Apr-25 20:33N 10°39' W 061°32'0 0.0
2016-Apr-25 19:33N 10°39' W 061°32'0 0.0
2016-Apr-25 18:33N 10°39' W 061°32'0 0.0
2016-Apr-25 17:33N 10°39' W 061°32'0 0.0
2016-Apr-25 16:33N 10°39' W 061°32'0 0.0
2016-Apr-25 15:30N 10°39' W 061°32'0 0.0
2016-Apr-25 14:33N 10°39' W 061°32'0 0.0
2016-Apr-25 13:33N 10°39' W 061°32'0 0.0
2016-Apr-25 12:30N 10°39' W 061°32'0 0.0
2016-Apr-25 11:33N 10°39' W 061°32'0 0.0
2016-Apr-25 10:33N 10°39' W 061°32'0 0.0
2016-Apr-25 09:33N 10°39' W 061°32'0 0.0
2016-Apr-25 08:33N 10°39' W 061°32'0 0.0
2016-Apr-25 07:33N 10°39' W 061°32'0 0.0
2016-Apr-25 06:33N 10°39' W 061°32'0 0.0
2016-Apr-25 05:33N 10°39' W 061°32'0 0.0
2016-Apr-25 04:33N 10°39' W 061°32'0 0.0
2016-Apr-25 03:33N 10°39' W 061°32'0 0.0
2016-Apr-25 02:33N 10°39' W 061°32'0 0.0
2016-Apr-25 01:33N 10°39' W 061°32'0 0.0
2016-Apr-25 00:33N 10°39' W 061°32'0 0.0
2016-Apr-24 23:33N 10°39' W 061°32'0 0.0
2016-Apr-24 22:33N 10°39' W 061°32'0 0.0
2016-Apr-24 21:33N 10°39' W 061°32'2 2.4
2016-Apr-24 20:33N 10°38' W 061°34'7 7.3
2016-Apr-24 19:34N 10°36' W 061°41'2 1.9
2016-Apr-24 18:33N 10°36' W 061°43'0 0.5
2016-Apr-24 17:33N 10°37' W 061°42'1 0.6
2016-Apr-24 16:33N 10°37' W 061°42'8 7.8
2016-Apr-24 15:34N 10°40' W 061°49'8 8.1
2016-Apr-24 14:33N 10°48' W 061°50'9 8.5
2016-Apr-24 13:33N 10°56' W 061°53'15 7.3
2016-Apr-24 11:30N 11°11' W 061°55'259 8.1
2016-Apr-23 03:33N 15°29' W 061°32'3410.9
2016-Apr-23 00:26N 16°03' W 061°31'910.5
2016-Apr-22 23:34N 16°12' W 061°32'2 0.9
2016-Apr-22 21:06N 16°14' W 061°33'0 0.0
2016-Apr-22 19:21N 16°14' W 061°33'0 0.0
2016-Apr-22 18:27N 16°14' W 061°33'0 0.0
2016-Apr-22 17:33N 16°14' W 061°33'0 0.0
2016-Apr-22 16:27N 16°14' W 061°33'0 0.0
2016-Apr-22 15:33N 16°14' W 061°33'0 0.0
2016-Apr-22 14:28N 16°14' W 061°33'0 0.0
2016-Apr-22 13:28N 16°14' W 061°33'1 0.3
2016-Apr-22 09:32N 16°13' W 061°32'1111.3
2016-Apr-22 08:33N 16°07' W 061°22'  
Track history (hours):
 
Tides and Currents Weather Stations Pressure Air Temp Water Temp Dewpoint Dewpoint Depression Visibility Wind Speed Wind Dir Waves Ship Positions

CMA CGM Homere

Last reported at 2016-Apr-25 23:33 UTC. Time now 2016-Apr-30 07:12 UTC.
Position N 10°51' W 061°35'.

Length 170 m; draft 5.9 m.

Type: Ship (hazmat cat A). MMSI: 235052314.

Date/timePositionNaut miles runAvg speedWind from/ knotsBaromVisibWave heightAir tempDewpointWater temp
2016-Apr-25 23:33N 10°51' W 061°35'1414.5
2016-Apr-25 22:33N 10°42' W 061°47'1111.2
2016-Apr-25 21:34N 10°37' W 061°37'6 5.7
2016-Apr-25 20:33N 10°39' W 061°32'0 0.0
2016-Apr-25 19:33N 10°39' W 061°32'0 0.0
2016-Apr-25 18:33N 10°39' W 061°32'0 0.0
2016-Apr-25 17:33N 10°39' W 061°32'0 0.0
2016-Apr-25 16:33N 10°39' W 061°32'0 0.0
2016-Apr-25 15:30N 10°39' W 061°32'0 0.0
2016-Apr-25 14:33N 10°39' W 061°32'0 0.0
2016-Apr-25 13:33N 10°39' W 061°32'0 0.0
2016-Apr-25 12:30N 10°39' W 061°32'0 0.0
2016-Apr-25 11:33N 10°39' W 061°32'0 0.0
2016-Apr-25 10:33N 10°39' W 061°32'0 0.0
2016-Apr-25 09:33N 10°39' W 061°32'0 0.0
2016-Apr-25 08:33N 10°39' W 061°32'0 0.0
2016-Apr-25 07:33N 10°39' W 061°32'0 0.0
2016-Apr-25 06:33N 10°39' W 061°32'0 0.0
2016-Apr-25 05:33N 10°39' W 061°32'0 0.0
2016-Apr-25 04:33N 10°39' W 061°32'0 0.0
2016-Apr-25 03:33N 10°39' W 061°32'0 0.0
2016-Apr-25 02:33N 10°39' W 061°32'0 0.0
2016-Apr-25 01:33N 10°39' W 061°32'0 0.0
2016-Apr-25 00:33N 10°39' W 061°32'0 0.0
2016-Apr-24 23:33N 10°39' W 061°32'0 0.0
2016-Apr-24 22:33N 10°39' W 061°32'0 0.0
2016-Apr-24 21:33N 10°39' W 061°32'2 2.4
2016-Apr-24 20:33N 10°38' W 061°34'7 7.3
2016-Apr-24 19:34N 10°36' W 061°41'2 1.9
2016-Apr-24 18:33N 10°36' W 061°43'0 0.5
2016-Apr-24 17:33N 10°37' W 061°42'1 0.6
2016-Apr-24 16:33N 10°37' W 061°42'8 7.8
2016-Apr-24 15:34N 10°40' W 061°49'8 8.1
2016-Apr-24 14:33N 10°48' W 061°50'9 8.5
2016-Apr-24 13:33N 10°56' W 061°53'15 7.3
2016-Apr-24 11:30N 11°11' W 061°55'259 8.1
2016-Apr-23 03:33N 15°29' W 061°32'3410.9
2016-Apr-23 00:26N 16°03' W 061°31'910.5
2016-Apr-22 23:34N 16°12' W 061°32'2 0.9
2016-Apr-22 21:06N 16°14' W 061°33'0 0.0
2016-Apr-22 19:21N 16°14' W 061°33'0 0.0
2016-Apr-22 18:27N 16°14' W 061°33'0 0.0
2016-Apr-22 17:33N 16°14' W 061°33'0 0.0
2016-Apr-22 16:27N 16°14' W 061°33'0 0.0
2016-Apr-22 15:33N 16°14' W 061°33'0 0.0
2016-Apr-22 14:28N 16°14' W 061°33'0 0.0
2016-Apr-22 13:28N 16°14' W 061°33'1 0.3
2016-Apr-22 09:32N 16°13' W 061°32'1111.3
2016-Apr-22 08:33N 16°07' W 061°22'  

Dump ship's entire track history